createdAt,value
2018-11-28T00:02:05.293Z,53.33
2018-11-28T00:04:34.178Z,51.25
2018-11-28T00:07:08.182Z,46.30
2018-11-28T00:09:44.440Z,51.98
2018-11-28T00:12:13.251Z,47.38
2018-11-28T00:14:42.176Z,51.35
2018-11-28T00:17:12.023Z,45.75
2018-11-28T00:19:40.795Z,52.73
2018-11-28T00:22:09.716Z,50.20
2018-11-28T00:24:38.503Z,51.18
2018-11-28T00:27:07.348Z,44.18
2018-11-28T00:29:36.090Z,52.53
2018-11-28T00:32:05.298Z,45.48
2018-11-28T00:34:35.211Z,43.77
2018-11-28T00:37:04.949Z,45.67
2018-11-28T00:39:33.704Z,46.70
2018-11-28T00:42:02.407Z,47.50
2018-11-28T00:44:31.263Z,47.15
2018-11-28T00:47:00.141Z,47.70
2018-11-28T00:49:35.552Z,49.07
2018-11-28T00:52:05.528Z,45.20
2018-11-28T00:54:51.401Z,42.23
2018-11-28T01:12:35.243Z,49.23
2018-11-28T01:15:04.128Z,50.30
2018-11-28T01:17:32.884Z,40.40
2018-11-28T01:20:01.803Z,44.38
2018-11-28T01:22:30.573Z,48.68
2018-11-28T01:24:59.500Z,42.03
2018-11-28T01:27:28.804Z,48.55
2018-11-28T01:29:57.595Z,48.90
2018-11-28T01:32:26.407Z,47.53
2018-11-28T01:34:55.299Z,48.25
2018-11-28T01:37:24.258Z,55.33
2018-11-28T01:39:53.129Z,42.98
2018-11-28T01:42:22.069Z,45.38
2018-11-28T01:44:51.016Z,47.55
2018-11-28T01:47:19.783Z,44.05
2018-11-28T01:49:48.675Z,43.28
2018-11-28T01:52:17.513Z,44.05
2018-11-28T01:54:46.915Z,42.35
2018-11-28T01:57:15.785Z,43.52
2018-11-28T01:59:44.550Z,46.85
2018-11-28T02:02:13.439Z,50.60
2018-11-28T02:04:42.247Z,43.90
2018-11-28T02:07:11.254Z,51.65
2018-11-28T02:09:40.415Z,48.73
2018-11-28T02:12:09.450Z,46.53
2018-11-28T02:14:38.263Z,46.95
2018-11-28T02:17:07.451Z,45.10
2018-11-28T02:19:36.244Z,43.58
2018-11-28T02:22:05.152Z,51.40
2018-11-28T02:24:35.552Z,43.83
2018-11-28T02:27:04.377Z,44.15
2018-11-28T02:29:33.233Z,46.88
2018-11-28T02:32:02.242Z,44.58
2018-11-28T02:34:31.048Z,43.70
2018-11-28T02:36:59.869Z,46.23
2018-11-28T02:39:28.732Z,48.15
2018-11-28T02:42:11.497Z,48.20
2018-11-28T02:44:40.234Z,42.05
2018-11-28T02:47:08.998Z,44.63
2018-11-28T02:49:37.798Z,44.05
2018-11-28T02:52:06.766Z,39.55
2018-11-28T02:54:35.676Z,41.48
2018-11-28T02:57:04.466Z,41.65
2018-11-28T02:59:33.201Z,38.30
2018-11-28T03:02:02.194Z,43.85
2018-11-28T03:04:30.937Z,39.50
2018-11-28T03:06:59.665Z,36.50
2018-11-28T03:09:28.485Z,39.67
2018-11-28T03:11:57.307Z,39.83
2018-11-28T03:14:26.083Z,40.98
2018-11-28T03:16:54.865Z,44.48
2018-11-28T03:19:23.724Z,42.08
2018-11-28T03:21:52.523Z,38.55
2018-11-28T03:24:21.324Z,38.98
2018-11-28T03:26:50.141Z,40.88
2018-11-28T03:29:18.904Z,36.75
2018-11-28T03:31:47.666Z,43.75
2018-11-28T03:34:16.420Z,37.40
2018-11-28T03:36:45.120Z,35.40
2018-11-28T03:39:13.832Z,38.88
2018-11-28T03:41:42.583Z,41.10
2018-11-28T03:44:11.358Z,39.18
2018-11-28T03:46:40.152Z,39.03
2018-11-28T03:49:08.920Z,37.15
2018-11-28T03:51:37.678Z,38.02
2018-11-28T03:54:06.547Z,33.65
2018-11-28T03:56:35.271Z,38.00
2018-11-28T03:59:04.257Z,35.05
2018-11-28T04:01:32.976Z,35.68
2018-11-28T04:04:02.038Z,39.88
2018-11-28T04:06:30.760Z,36.33
2018-11-28T04:08:59.488Z,41.53
2018-11-28T04:11:28.287Z,41.13
2018-11-28T04:13:57.014Z,39.30
2018-11-28T04:16:25.775Z,39.38
2018-11-28T04:18:54.549Z,38.48
2018-11-28T04:21:24.578Z,39.80
2018-11-28T04:23:53.426Z,39.63
2018-11-28T04:26:22.372Z,43.95
2018-11-28T04:28:51.105Z,46.77
2018-11-28T04:31:20.010Z,45.08
2018-11-28T04:33:48.816Z,52.38
2018-11-28T04:36:17.586Z,55.67
2018-11-28T04:38:46.375Z,56.08
2018-11-28T04:41:15.181Z,50.05
2018-11-28T04:43:43.956Z,57.23
2018-11-28T04:46:12.674Z,54.48
2018-11-28T04:48:41.496Z,61.77
2018-11-28T04:51:10.269Z,60.30
2018-11-28T04:53:39.178Z,57.60
2018-11-28T04:56:07.982Z,72.30
2018-11-28T04:58:37.056Z,70.92
2018-11-28T05:01:06.017Z,71.53
2018-11-28T05:03:34.736Z,64.42
2018-11-28T05:06:03.824Z,63.85
2018-11-28T05:08:32.589Z,65.28
2018-11-28T05:11:01.374Z,62.10
2018-11-28T05:13:30.156Z,69.03
2018-11-28T05:15:58.978Z,67.95
2018-11-28T05:18:27.775Z,60.73
2018-11-28T05:20:56.578Z,63.87
2018-11-28T05:23:25.393Z,54.93
2018-11-28T05:25:54.383Z,58.58
2018-11-28T05:28:23.214Z,46.88
2018-11-28T05:30:51.964Z,50.10
2018-11-28T05:33:20.745Z,48.38
2018-11-28T05:35:49.455Z,53.78
2018-11-28T05:38:18.244Z,41.08
2018-11-28T05:40:46.970Z,40.83
2018-11-28T05:43:15.717Z,37.73
2018-11-28T05:45:44.627Z,39.80
2018-11-28T05:48:13.439Z,41.88
2018-11-28T05:50:42.197Z,45.67
2018-11-28T05:53:10.987Z,36.88
2018-11-28T05:55:39.764Z,39.45
2018-11-28T05:58:08.621Z,43.15
2018-11-28T06:00:39.292Z,49.13
2018-11-28T06:03:15.421Z,44.50
2018-11-28T06:05:44.276Z,45.90
2018-11-28T06:08:14.266Z,46.42
2018-11-28T06:10:43.078Z,46.05
2018-11-28T06:13:11.830Z,44.03
2018-11-28T06:15:40.632Z,41.92
2018-11-28T06:18:09.956Z,48.33
2018-11-28T06:20:39.060Z,43.15
2018-11-28T06:23:08.086Z,41.55
2018-11-28T06:25:37.191Z,42.80
2018-11-28T06:28:06.246Z,50.00
2018-11-28T06:30:35.145Z,49.00
2018-11-28T06:33:03.985Z,60.08
2018-11-28T06:35:32.794Z,73.90
2018-11-28T06:38:01.676Z,73.10
2018-11-28T06:40:30.445Z,111.57
2018-11-28T06:42:59.268Z,94.30
2018-11-28T06:45:28.589Z,91.50
2018-11-28T06:47:57.534Z,95.38
2018-11-28T06:50:26.308Z,88.22
2018-11-28T06:52:55.062Z,91.82
2018-11-28T06:55:23.849Z,88.47
2018-11-28T06:57:52.643Z,92.42
2018-11-28T07:00:22.625Z,91.20
2018-11-28T07:02:52.466Z,84.77
2018-11-28T07:05:21.716Z,79.53
2018-11-28T07:07:50.755Z,85.05
2018-11-28T07:10:21.491Z,82.20
2018-11-28T07:12:50.385Z,89.13
2018-11-28T07:15:22.295Z,86.05
2018-11-28T07:17:51.236Z,82.33
2018-11-28T07:20:20.074Z,81.50
2018-11-28T07:22:48.981Z,76.80
2018-11-28T07:25:19.374Z,85.25
2018-11-28T07:27:49.363Z,70.50
2018-11-28T07:30:20.389Z,72.42
2018-11-28T07:32:50.454Z,75.05
2018-11-28T07:35:19.461Z,67.67
2018-11-28T07:37:48.206Z,65.80
2018-11-28T07:40:19.299Z,63.78
2018-11-28T07:42:53.978Z,61.13
2018-11-28T07:45:23.135Z,63.92
2018-11-28T07:47:52.046Z,64.70
2018-11-28T07:50:21.032Z,69.32
2018-11-28T07:52:49.905Z,69.07
2018-11-28T07:55:18.755Z,58.38
2018-11-28T07:57:47.543Z,58.25
2018-11-28T08:00:16.464Z,58.38
2018-11-28T08:02:45.575Z,59.23
2018-11-28T08:05:14.422Z,63.00
2018-11-28T08:07:43.345Z,56.15
2018-11-28T08:10:18.598Z,59.00
2018-11-28T08:12:47.991Z,57.25
2018-11-28T08:15:17.351Z,60.55
2018-11-28T08:17:46.252Z,62.33
2018-11-28T08:20:15.121Z,53.90
2018-11-28T08:22:44.113Z,54.23
2018-11-28T08:25:14.097Z,53.52
2018-11-28T08:27:43.906Z,50.78
2018-11-28T08:30:19.831Z,54.08
2018-11-28T08:32:47.988Z,49.38
2018-11-28T08:35:16.949Z,49.20
2018-11-28T08:37:45.773Z,52.83
2018-11-28T08:40:19.650Z,49.98
2018-11-28T08:42:48.587Z,53.40
2018-11-28T08:45:19.343Z,49.55
2018-11-28T08:47:49.074Z,55.45
2018-11-28T08:50:23.132Z,53.68
2018-11-28T08:52:52.004Z,55.73
2018-11-28T08:55:21.604Z,52.17
2018-11-28T08:57:50.401Z,52.70
2018-11-28T09:00:22.244Z,58.10
2018-11-28T09:02:53.999Z,56.28
2018-11-28T09:05:22.852Z,55.85
2018-11-28T09:07:51.668Z,49.67
2018-11-28T09:10:22.926Z,54.77
2018-11-28T09:12:52.413Z,58.60
2018-11-28T09:15:23.314Z,54.23
2018-11-28T09:17:52.327Z,52.45
2018-11-28T09:20:21.219Z,46.95
2018-11-28T09:22:50.679Z,49.10
2018-11-28T09:25:20.237Z,48.42
2018-11-28T09:27:57.456Z,49.05
2018-11-28T09:30:26.274Z,51.10
2018-11-28T09:32:55.215Z,54.58
2018-11-28T09:35:24.064Z,50.95
2018-11-28T09:37:52.845Z,52.58
2018-11-28T09:40:23.497Z,48.30
2018-11-28T09:42:53.582Z,54.77
2018-11-28T09:45:22.695Z,50.33
2018-11-28T09:47:51.673Z,47.25
2018-11-28T09:50:21.455Z,48.98
2018-11-28T09:52:50.416Z,55.05
2018-11-28T09:55:27.042Z,50.98
2018-11-28T09:57:56.113Z,45.10
2018-11-28T10:00:26.686Z,46.15
2018-11-28T10:02:56.621Z,44.48
2018-11-28T10:05:27.597Z,48.73
2018-11-28T10:07:56.818Z,47.03
2018-11-28T10:10:26.179Z,46.75
2018-11-28T10:12:55.301Z,43.42
2018-11-28T10:15:25.129Z,43.95
2018-11-28T10:17:54.158Z,38.78
2018-11-28T10:20:23.235Z,40.52
2018-11-28T10:22:53.143Z,42.43
2018-11-28T10:25:24.637Z,41.73
2018-11-28T10:27:55.090Z,41.50
2018-11-28T10:30:26.051Z,46.30
2018-11-28T10:32:55.272Z,41.13
2018-11-28T10:35:24.040Z,45.95
2018-11-28T10:37:52.936Z,46.58
2018-11-28T10:40:22.615Z,43.63
2018-11-28T10:42:53.605Z,46.33
2018-11-28T10:45:24.107Z,52.23
2018-11-28T10:47:53.508Z,48.08
2018-11-28T10:50:22.662Z,49.50
2018-11-28T10:52:51.665Z,46.92
2018-11-28T10:55:22.468Z,42.13
2018-11-28T10:57:51.609Z,47.65
2018-11-28T11:00:37.420Z,44.93
2018-11-28T11:03:12.509Z,47.65
2018-11-28T11:05:46.912Z,51.98
2018-11-28T11:08:20.929Z,51.50
2018-11-28T11:11:31.226Z,50.88
2018-11-28T11:14:05.347Z,44.23
2018-11-28T11:16:34.310Z,51.85
2018-11-28T11:19:03.662Z,50.92
2018-11-28T11:21:32.558Z,49.90
2018-11-28T11:24:01.594Z,45.00
2018-11-28T11:26:30.640Z,44.27
2018-11-28T11:28:59.660Z,47.73
2018-11-28T11:31:28.957Z,44.75
2018-11-28T11:33:57.821Z,47.93
2018-11-28T11:36:26.666Z,44.33
2018-11-28T11:38:55.759Z,42.50
2018-11-28T11:41:25.135Z,47.60
2018-11-28T11:43:53.980Z,48.58
2018-11-28T11:46:22.956Z,46.37
2018-11-28T11:48:51.774Z,47.70
2018-11-28T11:51:20.719Z,49.95
2018-11-28T11:53:49.520Z,43.70
2018-11-28T11:56:18.501Z,42.70
2018-11-28T11:58:47.312Z,54.03
2018-11-28T12:01:16.490Z,43.25
2018-11-28T12:03:45.410Z,47.85
2018-11-28T12:06:14.572Z,42.83
2018-11-28T12:08:43.803Z,41.90
2018-11-28T12:11:12.708Z,52.38
2018-11-28T12:13:41.729Z,50.00
2018-11-28T12:16:10.724Z,44.13
2018-11-28T12:18:39.813Z,48.90
2018-11-28T12:21:08.830Z,57.78
2018-11-28T12:23:37.851Z,52.80
2018-11-28T12:26:06.908Z,50.95
2018-11-28T12:28:35.792Z,50.85
2018-11-28T12:31:05.014Z,58.90
2018-11-28T12:33:33.862Z,58.42
2018-11-28T12:36:02.856Z,58.75
2018-11-28T12:38:31.675Z,51.90
2018-11-28T12:41:00.773Z,61.10
2018-11-28T12:43:29.773Z,52.75
2018-11-28T12:45:58.584Z,49.53
2018-11-28T12:48:27.479Z,48.58
2018-11-28T12:50:56.827Z,45.83
2018-11-28T12:53:26.254Z,49.38
2018-11-28T12:55:55.610Z,59.58
2018-11-28T12:58:25.229Z,47.20
2018-11-28T13:00:54.598Z,47.53
2018-11-28T13:03:24.641Z,54.05
2018-11-28T13:05:53.803Z,59.55
2018-11-28T13:08:24.994Z,55.35
2018-11-28T13:10:54.056Z,53.00
2018-11-28T13:13:22.887Z,46.58
2018-11-28T13:15:51.710Z,52.67
2018-11-28T13:18:20.614Z,55.92
2018-11-28T13:20:49.801Z,49.40
2018-11-28T13:23:18.767Z,57.98
2018-11-28T13:25:51.468Z,51.73
2018-11-28T13:28:20.578Z,49.05
2018-11-28T13:30:51.579Z,57.62
2018-11-28T13:33:20.426Z,57.43
2018-11-28T13:35:49.392Z,53.08
2018-11-28T13:38:18.244Z,50.35
2018-11-28T13:40:48.053Z,55.12
2018-11-28T13:43:16.975Z,59.55
2018-11-28T13:45:47.752Z,55.88
2018-11-28T13:48:17.233Z,55.30
2018-11-28T13:50:50.233Z,53.55
2018-11-28T13:53:19.483Z,55.95
2018-11-28T13:56:57.223Z,48.00
2018-11-28T13:58:23.571Z,55.50
2018-11-28T14:00:53.040Z,57.90
2018-11-28T14:03:22.210Z,56.68
2018-11-28T14:05:51.633Z,49.90
2018-11-28T14:08:20.434Z,56.53
2018-11-28T14:10:49.193Z,52.43
2018-11-28T14:13:18.174Z,61.90
2018-11-28T14:15:47.022Z,59.88
2018-11-28T14:18:17.153Z,55.67
2018-11-28T14:20:46.134Z,48.33
2018-11-28T14:23:14.947Z,57.50
2018-11-28T14:25:43.731Z,61.33
2018-11-28T14:28:12.904Z,59.27
2018-11-28T14:30:42.090Z,63.02
2018-11-28T14:33:11.971Z,63.13
2018-11-28T14:35:40.902Z,73.33
2018-11-28T14:38:09.722Z,58.33
2018-11-28T14:40:38.477Z,66.92
2018-11-28T14:43:07.818Z,58.95
2018-11-28T14:45:37.008Z,83.52
2018-11-28T14:48:05.899Z,60.63
2018-11-28T14:50:34.959Z,55.52
2018-11-28T14:53:04.096Z,58.78
2018-11-28T14:55:36.662Z,71.35
2018-11-28T14:58:06.092Z,60.10
2018-11-28T15:00:35.138Z,56.98
2018-11-28T15:03:08.888Z,62.85
2018-11-28T15:06:11.483Z,56.15
2018-11-28T15:08:40.507Z,68.85
2018-11-28T15:11:16.119Z,55.33
2018-11-28T15:13:45.379Z,56.68
2018-11-28T15:16:14.445Z,56.35
2018-11-28T15:18:43.215Z,58.95
2018-11-28T15:21:12.295Z,52.78
2018-11-28T15:23:41.565Z,54.63
2018-11-28T15:26:10.731Z,58.50
2018-11-28T15:28:40.544Z,57.80
2018-11-28T15:31:08.849Z,59.63
2018-11-28T15:33:37.914Z,65.45
2018-11-28T15:36:06.752Z,56.18
2018-11-28T15:38:35.612Z,53.50
2018-11-28T15:41:04.638Z,63.85
2018-11-28T15:43:33.672Z,55.58
2018-11-28T15:46:02.587Z,61.37
2018-11-28T15:48:31.587Z,63.42
2018-11-28T15:51:01.155Z,55.55
2018-11-28T15:53:30.519Z,61.28
2018-11-28T15:55:59.538Z,60.85
2018-11-28T15:58:28.395Z,58.35
2018-11-28T16:00:58.383Z,56.28
2018-11-28T16:03:27.935Z,53.02
2018-11-28T16:05:58.392Z,52.80
2018-11-28T16:08:27.789Z,52.88
2018-11-28T16:10:57.428Z,48.85
2018-11-28T16:13:26.926Z,54.45
2018-11-28T16:15:59.354Z,52.20
2018-11-28T16:18:29.127Z,47.90
2018-11-28T16:20:58.183Z,51.37
2018-11-28T16:23:27.143Z,53.15
2018-11-28T16:25:56.368Z,50.25
2018-11-28T16:28:26.212Z,44.23
2018-11-28T16:30:55.200Z,54.70
2018-11-28T16:33:24.307Z,49.98
2018-11-28T16:35:53.226Z,57.23
2018-11-28T16:38:22.191Z,61.75
2018-11-28T16:40:51.368Z,53.60
2018-11-28T16:43:20.767Z,49.10
2018-11-28T16:45:52.709Z,56.68
2018-11-28T16:48:21.779Z,53.45
2018-11-28T16:50:51.232Z,48.30
2018-11-28T16:53:20.319Z,54.42
2018-11-28T16:55:50.198Z,53.83
2018-11-28T16:58:19.344Z,49.40
2018-11-28T17:00:50.754Z,55.00
2018-11-28T17:03:19.681Z,55.78
2018-11-28T17:05:49.715Z,60.00
2018-11-28T17:08:18.544Z,49.20
2018-11-28T17:10:47.311Z,56.83
2018-11-28T17:13:16.290Z,54.42
2018-11-28T17:15:45.149Z,55.08
2018-11-28T17:18:14.125Z,51.55
2018-11-28T17:20:43.481Z,53.00
2018-11-28T17:23:12.339Z,52.85
2018-11-28T17:25:41.421Z,53.63
2018-11-28T17:28:10.312Z,57.23
2018-11-28T17:30:39.246Z,52.30
2018-11-28T17:33:08.039Z,57.73
2018-11-28T17:35:37.137Z,57.40
2018-11-28T17:38:06.884Z,58.35
2018-11-28T17:40:35.952Z,50.00
2018-11-28T17:43:04.740Z,55.67
2018-11-28T17:45:33.600Z,50.15
2018-11-28T17:48:02.397Z,58.45
2018-11-28T17:50:31.482Z,60.65
2018-11-28T17:53:15.547Z,54.38
2018-11-28T17:55:48.443Z,60.95
2018-11-28T17:58:17.340Z,54.53
2018-11-28T18:00:46.199Z,56.35
2018-11-28T18:03:15.084Z,54.77
2018-11-28T18:05:44.140Z,53.02
2018-11-28T18:08:12.980Z,59.98
2018-11-28T18:10:41.866Z,62.58
2018-11-28T18:13:12.656Z,62.13
2018-11-28T18:15:42.576Z,58.92
2018-11-28T18:18:12.457Z,61.13
2018-11-28T18:20:41.257Z,58.25
2018-11-28T18:23:12.088Z,63.55
2018-11-28T18:25:42.124Z,62.90
2018-11-28T18:28:14.078Z,59.30
2018-11-28T18:30:44.786Z,53.95
2018-11-28T18:33:14.435Z,58.68
2018-11-28T18:35:43.665Z,63.02
2018-11-28T18:38:12.544Z,60.12
2018-11-28T18:40:41.883Z,59.58
2018-11-28T18:43:12.615Z,64.32
2018-11-28T18:45:44.320Z,65.52
2018-11-28T18:48:14.420Z,68.80
2018-11-28T18:50:43.622Z,64.10
2018-11-28T18:53:13.100Z,68.62
2018-11-28T18:55:42.443Z,56.00
2018-11-28T18:58:12.157Z,70.62
2018-11-28T19:00:41.244Z,76.42
2018-11-28T19:03:10.315Z,64.00
2018-11-28T19:05:39.660Z,61.80
2018-11-28T19:08:08.899Z,63.33
2018-11-28T19:10:37.878Z,60.03
2018-11-28T19:13:07.312Z,66.92
2018-11-28T19:15:36.719Z,57.83
2018-11-28T19:18:05.947Z,58.10
2018-11-28T19:20:35.039Z,63.25
2018-11-28T19:23:04.135Z,65.37
2018-11-28T19:25:33.035Z,58.52
2018-11-28T19:28:01.865Z,59.55
2018-11-28T19:30:35.979Z,62.55
2018-11-28T19:33:05.346Z,59.95
2018-11-28T19:35:34.175Z,64.53
2018-11-28T19:38:03.028Z,67.82
2018-11-28T19:40:34.928Z,65.62
2018-11-28T19:43:03.942Z,64.97
2018-11-28T19:45:32.820Z,66.22
2018-11-28T19:48:01.750Z,66.15
2018-11-28T19:50:33.051Z,59.38
2018-11-28T19:53:01.948Z,62.50
2018-11-28T19:55:30.877Z,69.77
2018-11-28T19:57:59.770Z,66.62
2018-11-28T20:00:29.575Z,63.50
2018-11-28T20:02:58.437Z,67.32
2018-11-28T20:05:27.223Z,70.05
2018-11-28T20:07:56.711Z,78.15
2018-11-28T20:10:27.351Z,70.00
2018-11-28T20:12:56.423Z,67.35
2018-11-28T20:15:26.685Z,68.10
2018-11-28T20:17:56.944Z,60.78
2018-11-28T20:20:25.753Z,65.42
2018-11-28T20:22:55.413Z,66.62
2018-11-28T20:25:25.039Z,66.50
2018-11-28T20:27:57.409Z,62.30
2018-11-28T20:30:29.708Z,60.92
2018-11-28T20:32:58.635Z,61.42
2018-11-28T20:35:27.665Z,63.48
2018-11-28T20:37:56.715Z,66.17
2018-11-28T20:40:25.525Z,67.42
2018-11-28T20:42:55.168Z,67.90
2018-11-28T20:45:23.954Z,62.50
2018-11-28T20:47:52.736Z,58.55
2018-11-28T20:50:24.298Z,69.45
2018-11-28T20:52:56.354Z,66.10
2018-11-28T20:55:25.263Z,62.55
2018-11-28T20:57:54.148Z,65.83
2018-11-28T21:00:24.119Z,57.23
2018-11-28T21:02:52.925Z,70.35
2018-11-28T21:05:21.723Z,58.68
2018-11-28T21:07:50.651Z,57.38
2018-11-28T21:10:24.554Z,64.60
2018-11-28T21:12:54.208Z,56.00
2018-11-28T21:15:23.114Z,61.77
2018-11-28T21:17:51.966Z,60.43
2018-11-28T21:20:21.987Z,67.00
2018-11-28T21:22:54.204Z,57.38
2018-11-28T21:25:23.376Z,61.58
2018-11-28T21:27:52.688Z,69.03
2018-11-28T21:30:21.938Z,60.92
2018-11-28T21:32:51.785Z,64.32
2018-11-28T21:35:24.962Z,65.75
2018-11-28T21:37:53.814Z,63.85
2018-11-28T21:40:22.598Z,57.15
2018-11-28T21:42:51.406Z,65.83
2018-11-28T21:45:20.937Z,60.35
2018-11-28T21:47:49.777Z,60.73
2018-11-28T21:50:20.127Z,70.67
2018-11-28T21:52:49.063Z,62.73
2018-11-28T21:55:18.752Z,55.33
2018-11-28T21:57:47.638Z,63.73
2018-11-28T22:00:21.485Z,60.08
2018-11-28T22:02:50.286Z,67.32
2018-11-28T22:05:20.153Z,60.65
2018-11-28T22:07:49.037Z,64.47
2018-11-28T22:10:19.766Z,61.75
2018-11-28T22:12:48.739Z,67.78
2018-11-28T22:15:18.185Z,63.28
2018-11-28T22:17:52.433Z,67.12
2018-11-28T22:20:21.391Z,58.02
2018-11-28T22:22:50.188Z,64.77
2018-11-28T22:25:20.753Z,64.00
2018-11-28T22:27:49.631Z,60.58
2018-11-28T22:30:24.203Z,62.90
2018-11-28T22:32:52.962Z,62.40
2018-11-28T22:35:21.674Z,65.90
2018-11-28T22:37:50.413Z,57.13
2018-11-28T22:40:24.268Z,63.08
2018-11-28T22:42:53.020Z,58.90
2018-11-28T22:45:24.837Z,58.78
2018-11-28T22:47:53.623Z,64.47
2018-11-28T22:50:22.356Z,51.42
2018-11-28T22:52:51.294Z,62.83
2018-11-28T22:55:20.174Z,53.15
2018-11-28T22:57:49.077Z,58.35
2018-11-28T23:00:25.510Z,60.15
2018-11-28T23:02:55.468Z,56.33
2018-11-28T23:05:27.696Z,55.92
2018-11-28T23:07:57.464Z,58.05
2018-11-28T23:10:26.331Z,62.90
2018-11-28T23:12:55.256Z,55.35
2018-11-28T23:15:24.067Z,55.60
2018-11-28T23:17:55.238Z,51.58
2018-11-28T23:20:21.678Z,54.10
2018-11-28T23:22:50.575Z,55.67
2018-11-28T23:25:19.383Z,60.55
2018-11-28T23:27:48.191Z,58.42
2018-11-28T23:30:17.904Z,57.35
2018-11-28T23:32:47.069Z,60.88
2018-11-28T23:35:15.845Z,65.10
2018-11-28T23:37:45.710Z,62.35
2018-11-28T23:40:15.469Z,58.30
2018-11-28T23:42:44.314Z,60.75
2018-11-28T23:45:14.908Z,48.35
2018-11-28T23:47:43.697Z,53.95
2018-11-28T23:50:18.119Z,55.65
2018-11-28T23:52:47.329Z,64.32
2018-11-28T23:55:22.965Z,55.98
2018-11-28T23:57:52.144Z,61.33
